FLARE911's ATC Tracking Thread - [CLOSED] @ N/A

After a long break, I am back here with the IFC and once again getting in some practice to get back into IFATC. Come on by!

Location: KLAS
Frequencies: Ground, Tower
Time: 0125Z
Remarks: RWY 08’s and 01’s in use
Server: Training
Status: Closed

METAR: KLAS 100056Z 09006KT 10SM SCT250 27/M12 A2989 RMK AO2 SLP102 T02671122

2 Likes

Closing in 5! Will open again tomorrow!

Come on by!

Location: CYVR
Frequencies: Ground, Tower
Time: 1455Z
Remarks: RWY 31 and 26L/R in use
Server: Training
Status: Closed

METAR:

Feedback from N17EE

Initial pattern entry , clearance was good , good that you didn’t confuse me with touch and go’s when I announced inbound for landing. All I see here is wait an little for the " exit runway when able " command 70 knts ( ground speed ) and below you can issue it. Thanks have an nice day !

1 Like

sounds good thanks for the feedback, little rusty so that’s why I am here XD

1 Like

No problem.

Location: KLAS
Frequencies: Ground, Tower
Time: NOW
Remarks: RWY 19’s and 26’sin use
Server: Training
Status: CLOSED

METAR:

Come on by! No traffic! Let’s fill up the skies of Beautiful Las Vegas and everyone get some practice in!

This topic was automatically closed 90 days after the last reply. New replies are no longer allowed.